createdAt,value
2019-05-01T00:02:23.446Z,99.90
2019-05-01T00:05:06.288Z,99.90
2019-05-01T00:07:39.954Z,99.90
2019-05-01T00:10:13.798Z,99.90
2019-05-01T00:12:48.253Z,99.90
2019-05-01T00:15:22.897Z,99.90
2019-05-01T00:17:56.555Z,99.90
2019-05-01T00:20:30.126Z,99.90
2019-05-01T00:23:03.842Z,99.90
2019-05-01T00:25:37.461Z,99.90
2019-05-01T00:28:11.165Z,99.90
2019-05-01T00:30:44.847Z,99.90
2019-05-01T00:33:19.408Z,99.90
2019-05-01T00:35:53.129Z,99.90
2019-05-01T00:38:26.684Z,99.90
2019-05-01T00:41:00.327Z,99.90
2019-05-01T00:43:34.172Z,99.90
2019-05-01T00:46:07.731Z,99.90
2019-05-01T00:48:41.324Z,99.90
2019-05-01T00:51:14.879Z,99.90
2019-05-01T00:53:48.568Z,99.90
2019-05-01T00:56:28.883Z,99.90
2019-05-01T00:59:02.655Z,99.90
2019-05-01T01:01:37.143Z,99.90
2019-05-01T01:04:10.818Z,99.90
2019-05-01T01:06:44.423Z,99.90
2019-05-01T01:09:18.017Z,99.90
2019-05-01T01:11:51.731Z,99.90
2019-05-01T01:14:26.151Z,99.90
2019-05-01T01:16:59.863Z,99.90
2019-05-01T01:19:34.205Z,99.90
2019-05-01T01:22:08.712Z,99.90
2019-05-01T01:24:42.284Z,99.90
2019-05-01T01:27:15.883Z,99.90
2019-05-01T01:29:50.252Z,99.90
2019-05-01T01:32:23.838Z,99.90
2019-05-01T01:34:57.415Z,99.90
2019-05-01T01:37:31.711Z,99.90
2019-05-01T01:40:05.499Z,99.90
2019-05-01T01:42:39.050Z,99.90
2019-05-01T01:45:12.821Z,99.90
2019-05-01T01:47:52.982Z,99.90
2019-05-01T01:50:26.641Z,99.90
2019-05-01T01:53:00.209Z,99.90
2019-05-01T01:55:33.760Z,99.90
2019-05-01T01:58:07.407Z,99.90
2019-05-01T02:01:08.928Z,99.90
2019-05-01T02:03:33.131Z,99.90
2019-05-01T02:06:06.717Z,99.90
2019-05-01T02:08:40.507Z,99.90
2019-05-01T02:11:14.055Z,99.90
2019-05-01T02:13:47.630Z,99.90
2019-05-01T02:16:21.199Z,99.90
2019-05-01T02:18:55.064Z,99.90
2019-05-01T02:21:28.590Z,99.90
2019-05-01T02:24:02.417Z,99.90
2019-05-01T02:26:51.741Z,99.90
2019-05-01T02:29:25.433Z,99.90
2019-05-01T02:31:59.130Z,99.90
2019-05-01T02:34:32.815Z,99.90
2019-05-01T02:37:06.316Z,99.90
2019-05-01T02:39:39.901Z,99.90
2019-05-01T02:42:13.668Z,99.90
2019-05-01T02:44:47.457Z,99.90
2019-05-01T02:47:21.205Z,99.90
2019-05-01T02:49:58.467Z,99.90
2019-05-01T02:52:32.020Z,99.90
2019-05-01T02:55:06.390Z,99.90
2019-05-01T02:57:39.959Z,99.90
2019-05-01T03:00:13.594Z,99.90
2019-05-01T03:02:47.174Z,99.90
2019-05-01T03:05:21.496Z,99.90
2019-05-01T03:07:55.238Z,99.90
2019-05-01T03:10:29.844Z,99.90
2019-05-01T03:13:03.511Z,99.90
2019-05-01T03:15:37.216Z,99.90
2019-05-01T03:18:10.843Z,99.90
2019-05-01T03:20:44.645Z,99.90
2019-05-01T03:23:33.863Z,99.90
2019-05-01T03:26:07.402Z,99.90
2019-05-01T03:28:41.001Z,99.90
2019-05-01T03:31:15.498Z,99.90
2019-05-01T03:33:49.267Z,99.90
2019-05-01T03:36:22.909Z,99.90
2019-05-01T03:38:56.608Z,99.90
2019-05-01T03:41:30.218Z,99.90
2019-05-01T03:44:03.744Z,99.90
2019-05-01T03:46:37.318Z,99.90
2019-05-01T03:49:11.104Z,99.90
2019-05-01T03:51:44.715Z,99.90
2019-05-01T03:54:18.377Z,99.90
2019-05-01T03:56:51.970Z,99.90
2019-05-01T03:59:25.540Z,99.90
2019-05-01T04:02:00.099Z,99.90
2019-05-01T04:04:33.716Z,99.90
2019-05-01T04:07:07.283Z,99.90
2019-05-01T04:09:41.671Z,99.90
2019-05-01T04:12:15.401Z,99.90
2019-05-01T04:14:49.000Z,99.90
2019-05-01T04:17:38.440Z,99.90
2019-05-01T04:20:12.247Z,99.90
2019-05-01T04:22:45.991Z,99.90
2019-05-01T04:25:19.844Z,99.90
2019-05-01T04:27:53.526Z,99.90
2019-05-01T04:30:27.820Z,99.90
2019-05-01T04:33:02.130Z,99.90
2019-05-01T04:35:42.288Z,99.90
2019-05-01T04:38:16.037Z,99.90
2019-05-01T04:40:49.816Z,99.90
2019-05-01T04:43:23.404Z,99.90
2019-05-01T04:45:57.252Z,99.90
2019-05-01T04:48:31.542Z,99.90
2019-05-01T04:51:05.856Z,99.90
2019-05-01T04:53:39.560Z,99.90
2019-05-01T04:56:13.363Z,99.90
2019-05-01T04:58:47.100Z,99.90
2019-05-01T05:01:20.859Z,99.90
2019-05-01T05:03:54.439Z,99.90
2019-05-01T05:06:28.248Z,99.90
2019-05-01T05:09:02.635Z,99.90
2019-05-01T05:11:42.151Z,99.90
2019-05-01T05:14:15.777Z,99.90
2019-05-01T05:16:49.372Z,99.90
2019-05-01T05:19:23.128Z,99.90
2019-05-01T05:21:56.880Z,99.90
2019-05-01T05:24:31.269Z,99.90
2019-05-01T05:27:05.799Z,99.90
2019-05-01T05:29:40.207Z,99.90
2019-05-01T05:32:13.873Z,99.90
2019-05-01T05:34:47.606Z,99.90
2019-05-01T05:37:23.739Z,99.90
2019-05-01T05:39:57.488Z,99.90
2019-05-01T05:42:31.159Z,99.90
2019-05-01T05:45:04.802Z,99.90
2019-05-01T05:47:38.578Z,99.90
2019-05-01T05:50:12.408Z,99.90
2019-05-01T05:52:46.239Z,99.90
2019-05-01T05:55:34.775Z,99.90
2019-05-01T05:58:12.110Z,99.90
2019-05-01T06:14:13.343Z,99.90
2019-05-01T06:16:52.470Z,99.90
2019-05-01T06:19:26.655Z,99.90
2019-05-01T06:22:10.025Z,99.90
2019-05-01T06:24:56.256Z,99.90
2019-05-01T06:27:29.927Z,99.90
2019-05-01T06:30:06.489Z,99.90
2019-05-01T06:32:39.816Z,99.90
2019-05-01T06:35:11.037Z,99.90
2019-05-01T06:37:56.005Z,99.90
2019-05-01T06:40:32.992Z,99.90
2019-05-01T06:43:07.379Z,99.90
2019-05-01T06:45:51.654Z,99.90
2019-05-01T06:48:24.648Z,99.90
2019-05-01T06:51:04.818Z,99.90
2019-05-01T06:53:39.992Z,99.90
2019-05-01T06:56:12.055Z,99.90
2019-05-01T06:58:45.637Z,99.90
2019-05-01T07:01:23.742Z,99.90
2019-05-01T07:04:03.625Z,99.90
2019-05-01T07:06:31.189Z,99.90
2019-05-01T07:09:00.670Z,99.90
2019-05-01T07:11:34.384Z,99.90
2019-05-01T07:14:11.255Z,99.90
2019-05-01T07:16:41.567Z,99.90
2019-05-01T07:19:16.290Z,99.90
2019-05-01T07:21:49.930Z,99.90
2019-05-01T07:24:24.005Z,99.90
2019-05-01T07:26:59.786Z,99.90
2019-05-01T07:29:32.872Z,99.90
2019-05-01T07:32:06.305Z,99.90
2019-05-01T07:34:38.538Z,99.90
2019-05-01T07:37:12.963Z,99.90
2019-05-01T07:39:49.912Z,99.90
2019-05-01T07:42:25.296Z,99.90
2019-05-01T07:45:03.825Z,99.90
2019-05-01T07:47:35.627Z,99.90
2019-05-01T07:50:10.067Z,99.90
2019-05-01T07:52:43.666Z,99.90
2019-05-01T07:55:18.266Z,99.90
2019-05-01T07:57:50.856Z,99.90
2019-05-01T08:13:47.194Z,99.90
2019-05-01T08:16:21.263Z,99.90
2019-05-01T08:19:05.999Z,99.90
2019-05-01T08:21:40.386Z,99.90
2019-05-01T08:24:17.966Z,99.90
2019-05-01T08:26:47.907Z,99.90
2019-05-01T08:29:42.158Z,99.90
2019-05-01T08:32:33.746Z,99.90
2019-05-01T08:35:06.457Z,99.90
2019-05-01T08:37:40.361Z,99.90
2019-05-01T08:40:15.816Z,99.90
2019-05-01T08:42:47.927Z,99.90
2019-05-01T08:45:27.445Z,99.90
2019-05-01T08:48:06.803Z,99.90
2019-05-01T08:50:40.334Z,99.90
2019-05-01T08:53:18.121Z,99.90
2019-05-01T08:55:47.891Z,99.90
2019-05-01T08:58:21.651Z,99.90
2019-05-01T09:00:55.470Z,99.90
2019-05-01T09:03:29.247Z,99.90
2019-05-01T09:06:03.056Z,99.90
2019-05-01T09:08:36.621Z,99.90
2019-05-01T09:11:10.228Z,99.90
2019-05-01T09:13:44.052Z,99.90
2019-05-01T09:16:19.266Z,98.30
2019-05-01T09:18:52.969Z,95.20
2019-05-01T09:21:27.461Z,94.00
2019-05-01T09:24:01.322Z,94.00
2019-05-01T09:26:36.043Z,89.60
2019-05-01T09:29:16.144Z,86.90
2019-05-01T09:31:45.831Z,87.30
2019-05-01T09:34:21.058Z,85.60
2019-05-01T09:36:53.434Z,85.00
2019-05-01T09:39:27.040Z,85.40
2019-05-01T09:42:00.825Z,88.10
2019-05-01T09:44:34.431Z,80.20
2019-05-01T09:47:08.159Z,79.00
2019-05-01T09:49:41.808Z,78.70
2019-05-01T09:52:30.280Z,69.20
2019-05-01T09:55:04.667Z,65.30
2019-05-01T09:57:41.464Z,55.50
2019-05-01T10:00:16.129Z,55.50
2019-05-01T10:02:49.912Z,57.80
2019-05-01T10:05:28.936Z,55.70
2019-05-01T10:08:00.196Z,55.90
2019-05-01T10:10:31.271Z,58.80
2019-05-01T10:13:05.007Z,59.10
2019-05-01T10:15:38.558Z,59.30
2019-05-01T10:18:12.233Z,57.20
2019-05-01T10:20:45.929Z,56.40
2019-05-01T10:23:19.589Z,56.60
2019-05-01T10:25:53.405Z,55.40
2019-05-01T10:28:29.385Z,59.50
2019-05-01T10:31:13.232Z,59.00
2019-05-01T10:34:02.910Z,58.90
2019-05-01T10:36:37.041Z,59.90
2019-05-01T10:39:10.553Z,59.60
2019-05-01T10:41:46.411Z,59.60
2019-05-01T10:44:18.711Z,59.50
2019-05-01T10:46:52.385Z,59.50
2019-05-01T10:49:26.877Z,59.40
2019-05-01T10:52:13.142Z,59.30
2019-05-01T10:54:34.173Z,58.70
2019-05-01T10:57:07.904Z,56.60
2019-05-01T10:59:41.623Z,55.90
2019-05-01T11:02:16.234Z,54.90
2019-05-01T11:04:49.942Z,54.90
2019-05-01T11:07:23.613Z,53.70
2019-05-01T11:09:58.125Z,53.90
2019-05-01T11:12:31.928Z,53.90
2019-05-01T11:15:06.358Z,54.30
2019-05-01T11:17:40.043Z,55.20
2019-05-01T11:20:14.511Z,54.50
2019-05-01T11:22:48.175Z,53.30
2019-05-01T11:25:21.768Z,53.30
2019-05-01T11:27:55.504Z,54.70
2019-05-01T11:30:29.200Z,55.90
2019-05-01T11:33:05.522Z,54.70
2019-05-01T11:36:09.309Z,54.10
2019-05-01T11:51:59.265Z,58.30
2019-05-01T11:54:33.811Z,58.60
2019-05-01T11:57:07.470Z,58.50
2019-05-01T11:59:41.270Z,59.20
2019-05-01T12:02:14.965Z,59.30
2019-05-01T12:04:48.683Z,57.90
2019-05-01T12:07:22.425Z,57.40
2019-05-01T12:09:56.855Z,58.60
2019-05-01T12:12:30.639Z,58.60
2019-05-01T12:15:05.247Z,58.80
2019-05-01T12:17:39.699Z,58.70
2019-05-01T12:20:13.576Z,60.90
2019-05-01T12:22:51.241Z,62.20
2019-05-01T12:25:21.837Z,62.10
2019-05-01T12:27:55.567Z,62.80
2019-05-01T12:30:29.177Z,61.40
2019-05-01T12:33:02.763Z,64.10
2019-05-01T12:35:36.349Z,62.70
2019-05-01T12:38:10.808Z,63.10
2019-05-01T12:40:45.346Z,64.60
2019-05-01T12:43:19.185Z,64.50
2019-05-01T12:45:52.846Z,63.20
2019-05-01T12:48:26.624Z,64.50
2019-05-01T12:51:00.541Z,64.70
2019-05-01T12:53:44.857Z,65.20
2019-05-01T12:56:19.919Z,65.20
2019-05-01T12:58:55.922Z,64.40
2019-05-01T13:01:28.881Z,64.40
2019-05-01T13:04:03.297Z,64.90
2019-05-01T13:06:48.859Z,64.70
2019-05-01T13:09:12.370Z,65.30
2019-05-01T13:11:45.935Z,65.30
2019-05-01T13:14:20.371Z,66.30
2019-05-01T13:16:54.188Z,66.30
2019-05-01T13:19:28.698Z,65.20
2019-05-01T13:22:05.201Z,64.90
2019-05-01T13:24:36.855Z,67.30
2019-05-01T13:27:11.549Z,68.50
2019-05-01T13:29:47.892Z,68.40
2019-05-01T13:32:42.325Z,68.40
2019-05-01T13:35:16.700Z,66.80
2019-05-01T13:37:50.343Z,66.70
2019-05-01T13:40:24.043Z,65.80
2019-05-01T13:42:57.572Z,65.60
2019-05-01T13:45:32.066Z,66.80
2019-05-01T13:48:05.865Z,66.80
2019-05-01T13:50:39.529Z,66.90
2019-05-01T13:53:13.320Z,66.80
2019-05-01T13:55:47.273Z,66.20
2019-05-01T13:58:20.929Z,57.20
2019-05-01T14:00:55.297Z,59.40
2019-05-01T14:03:29.068Z,59.40
2019-05-01T14:06:03.650Z,53.20
2019-05-01T14:08:37.345Z,53.20
2019-05-01T14:11:11.002Z,54.50
2019-05-01T14:13:44.888Z,58.30
2019-05-01T14:16:18.583Z,58.60
2019-05-01T14:18:53.079Z,57.30
2019-05-01T14:21:27.549Z,57.30
2019-05-01T14:24:10.999Z,57.20
2019-05-01T14:26:44.723Z,56.60
2019-05-01T14:29:18.459Z,58.40
2019-05-01T14:31:52.331Z,58.70
2019-05-01T14:34:26.183Z,57.40
2019-05-01T14:36:59.880Z,58.70
2019-05-01T14:39:33.648Z,59.70
2019-05-01T14:42:07.392Z,58.10
2019-05-01T14:44:41.123Z,57.00
2019-05-01T14:47:14.919Z,58.20
2019-05-01T14:49:48.604Z,57.70
2019-05-01T14:52:23.062Z,57.20
2019-05-01T14:54:56.656Z,56.70
2019-05-01T14:57:30.393Z,54.30
2019-05-01T15:00:05.967Z,53.90
2019-05-01T15:02:39.624Z,51.80
2019-05-01T15:05:13.225Z,51.00
2019-05-01T15:07:47.552Z,52.50
2019-05-01T15:10:21.955Z,52.30
2019-05-01T15:12:55.504Z,52.20
2019-05-01T15:15:44.972Z,53.60
2019-05-01T15:18:35.377Z,53.20
2019-05-01T15:21:10.024Z,50.50
2019-05-01T15:23:53.407Z,50.70
2019-05-01T15:26:18.107Z,50.50
2019-05-01T15:28:51.720Z,49.80
2019-05-01T15:31:25.307Z,49.50
2019-05-01T15:33:58.990Z,50.40
2019-05-01T15:36:33.778Z,49.90
2019-05-01T15:39:07.373Z,49.50
2019-05-01T15:41:59.975Z,49.50
2019-05-01T15:44:33.693Z,48.70
2019-05-01T15:47:07.375Z,48.00
2019-05-01T15:49:41.278Z,48.40
2019-05-01T15:52:15.597Z,48.80
2019-05-01T15:54:49.233Z,48.70
2019-05-01T15:57:23.468Z,48.60
2019-05-01T15:59:57.075Z,48.30
2019-05-01T16:02:30.821Z,46.60
2019-05-01T16:05:04.579Z,46.30
2019-05-01T16:07:38.270Z,45.20
2019-05-01T16:10:11.930Z,45.80
2019-05-01T16:12:46.277Z,45.90
2019-05-01T16:15:28.828Z,46.20
2019-05-01T16:18:02.590Z,46.30
2019-05-01T16:20:36.459Z,46.40
2019-05-01T16:23:10.062Z,46.60
2019-05-01T16:25:43.748Z,45.60
2019-05-01T16:28:17.642Z,45.40
2019-05-01T16:30:51.246Z,43.50
2019-05-01T16:33:24.887Z,43.60
2019-05-01T16:35:58.503Z,44.90
2019-05-01T16:38:48.993Z,45.00
2019-05-01T16:41:23.486Z,45.60
2019-05-01T16:43:57.950Z,44.90
2019-05-01T16:46:32.397Z,45.40
2019-05-01T16:49:06.083Z,45.30
2019-05-01T16:51:39.731Z,44.60
2019-05-01T16:54:13.561Z,44.90
2019-05-01T16:56:47.284Z,43.70
2019-05-01T16:59:20.986Z,44.50
2019-05-01T17:01:54.735Z,44.90
2019-05-01T17:04:28.446Z,44.40
2019-05-01T17:07:07.746Z,44.80
2019-05-01T17:09:47.295Z,45.60
2019-05-01T17:12:20.951Z,45.30
2019-05-01T17:14:54.640Z,44.60
2019-05-01T17:17:28.415Z,45.20
2019-05-01T17:20:02.984Z,45.50
2019-05-01T17:22:36.707Z,45.50
2019-05-01T17:25:11.161Z,50.90
2019-05-01T17:27:45.054Z,50.90
2019-05-01T17:30:19.464Z,54.50
2019-05-01T17:32:53.942Z,55.00
2019-05-01T17:35:28.499Z,55.00
2019-05-01T17:38:02.854Z,55.90
2019-05-01T17:40:36.504Z,55.80
2019-05-01T17:43:13.567Z,56.30
2019-05-01T17:45:43.897Z,57.20
2019-05-01T17:48:17.686Z,56.40
2019-05-01T17:50:54.994Z,56.70
2019-05-01T17:53:26.022Z,56.70
2019-05-01T17:55:59.661Z,57.20
2019-05-01T17:58:33.331Z,57.60
2019-05-01T18:01:07.808Z,58.10
2019-05-01T18:03:42.930Z,58.50
2019-05-01T18:06:16.571Z,58.50
2019-05-01T18:09:02.505Z,59.20
2019-05-01T18:11:24.921Z,60.50
2019-05-01T18:13:58.684Z,60.40
2019-05-01T18:16:32.414Z,62.30
2019-05-01T18:19:06.097Z,61.00
2019-05-01T18:21:40.502Z,62.00
2019-05-01T18:24:23.093Z,62.00
2019-05-01T18:27:14.658Z,62.50
2019-05-01T18:29:46.739Z,62.50
2019-05-01T18:32:31.242Z,63.50
2019-05-01T18:35:09.049Z,70.30
2019-05-01T18:37:39.462Z,70.30
2019-05-01T18:40:28.810Z,77.00
2019-05-01T18:43:02.370Z,77.10
2019-05-01T18:45:56.825Z,78.00
2019-05-01T18:48:30.442Z,80.40
2019-05-01T18:51:04.081Z,81.40
2019-05-01T18:53:37.827Z,85.20
2019-05-01T18:56:12.178Z,88.30
2019-05-01T18:58:45.859Z,88.10
2019-05-01T19:01:20.439Z,90.90
2019-05-01T19:03:54.225Z,90.90
2019-05-01T19:06:40.586Z,92.80
2019-05-01T19:09:14.332Z,92.80
2019-05-01T19:11:36.048Z,94.00
2019-05-01T19:14:09.745Z,93.80
2019-05-01T19:16:45.272Z,95.30
2019-05-01T19:19:17.877Z,95.40
2019-05-01T19:21:52.168Z,96.30
2019-05-01T19:24:25.919Z,96.00
2019-05-01T19:26:59.684Z,97.20
2019-05-01T19:29:33.897Z,97.60
2019-05-01T19:32:07.819Z,97.90
2019-05-01T19:34:41.676Z,97.90
2019-05-01T19:37:16.499Z,99.20
2019-05-01T19:39:53.770Z,99.20
2019-05-01T19:42:24.237Z,99.90
2019-05-01T19:44:57.942Z,99.90
2019-05-01T19:47:31.656Z,99.90
2019-05-01T19:50:07.484Z,99.90
2019-05-01T19:52:39.867Z,99.90
2019-05-01T19:55:13.787Z,99.90
2019-05-01T19:57:47.451Z,99.90
2019-05-01T20:13:47.773Z,99.90
2019-05-01T20:16:21.473Z,99.90
2019-05-01T20:18:55.306Z,99.90
2019-05-01T20:21:29.058Z,99.90
2019-05-01T20:24:04.472Z,99.90
2019-05-01T20:26:37.373Z,99.90
2019-05-01T20:29:11.176Z,99.90
2019-05-01T20:31:45.862Z,99.90
2019-05-01T20:34:18.801Z,99.90
2019-05-01T20:36:52.298Z,99.90
2019-05-01T20:39:26.106Z,99.90
2019-05-01T20:41:59.896Z,99.90
2019-05-01T20:44:34.489Z,99.90
2019-05-01T20:47:08.013Z,99.90
2019-05-01T20:49:42.550Z,99.90
2019-05-01T20:52:15.469Z,99.90
2019-05-01T20:54:49.237Z,99.90
2019-05-01T20:57:23.437Z,99.90
2019-05-01T20:59:57.083Z,99.90
2019-05-01T21:02:30.845Z,99.90
2019-05-01T21:05:10.359Z,99.90
2019-05-01T21:08:04.727Z,99.90
2019-05-01T21:10:53.276Z,99.90
2019-05-01T21:13:26.967Z,99.90
2019-05-01T21:16:01.806Z,99.90
2019-05-01T21:18:35.354Z,99.90
2019-05-01T21:21:09.022Z,99.90
2019-05-01T21:23:43.452Z,99.90
2019-05-01T21:26:16.440Z,99.90
2019-05-01T21:28:50.212Z,99.90
2019-05-01T21:31:24.085Z,99.90
2019-05-01T21:33:58.220Z,99.90
2019-05-01T21:36:31.860Z,99.90
2019-05-01T21:39:05.427Z,99.90
2019-05-01T21:41:39.270Z,99.90
2019-05-01T21:44:13.247Z,99.90
2019-05-01T21:46:46.922Z,99.90
2019-05-01T21:49:20.488Z,99.90
2019-05-01T21:51:54.062Z,99.90
2019-05-01T21:54:28.407Z,99.90
2019-05-01T21:57:02.081Z,99.90
2019-05-01T21:59:39.634Z,99.90
2019-05-01T22:02:11.962Z,99.90
2019-05-01T22:04:44.300Z,99.90
2019-05-01T22:07:18.596Z,99.90
2019-05-01T22:09:52.146Z,99.90
2019-05-01T22:12:25.967Z,99.90
2019-05-01T22:14:59.639Z,99.90
2019-05-01T22:17:38.284Z,99.90
2019-05-01T22:20:12.786Z,99.90
2019-05-01T22:22:48.365Z,99.90
2019-05-01T22:25:22.771Z,99.90
2019-05-01T22:27:58.057Z,99.90
2019-05-01T22:30:31.814Z,99.90
2019-05-01T22:33:05.481Z,99.90
2019-05-01T22:35:41.056Z,99.90
2019-05-01T22:38:14.683Z,99.90
2019-05-01T22:40:49.197Z,99.90
2019-05-01T22:43:22.874Z,99.90
2019-05-01T22:46:01.572Z,99.90
2019-05-01T22:48:30.364Z,99.90
2019-05-01T22:51:04.078Z,99.90
2019-05-01T22:53:38.697Z,99.90
2019-05-01T22:56:12.392Z,99.90
2019-05-01T22:58:46.712Z,99.90
2019-05-01T23:01:20.493Z,99.90
2019-05-01T23:03:54.117Z,99.90
2019-05-01T23:06:28.008Z,99.90
2019-05-01T23:09:01.580Z,99.90
2019-05-01T23:11:35.138Z,99.90
2019-05-01T23:14:08.725Z,99.90
2019-05-01T23:16:42.451Z,99.90
2019-05-01T23:19:16.222Z,99.90
2019-05-01T23:21:51.017Z,99.90
2019-05-01T23:24:23.557Z,99.90
2019-05-01T23:26:57.989Z,99.90
2019-05-01T23:29:31.660Z,99.90
2019-05-01T23:32:05.208Z,99.90
2019-05-01T23:34:38.998Z,99.90
2019-05-01T23:37:12.691Z,99.90
2019-05-01T23:39:46.991Z,99.90
2019-05-01T23:42:20.709Z,99.90
2019-05-01T23:44:54.371Z,99.90
2019-05-01T23:47:28.515Z,99.90
2019-05-01T23:50:02.527Z,99.90
2019-05-01T23:52:38.634Z,99.90
2019-05-01T23:55:10.053Z,99.90
2019-05-01T23:57:43.645Z,99.90
